createdAt,value
2022-10-09T00:02:35.000Z,9.25
2022-10-09T00:07:34.000Z,9.17
2022-10-09T00:12:35.000Z,9.08
2022-10-09T00:17:35.000Z,9.04
2022-10-09T00:22:35.000Z,9.04
2022-10-09T00:27:34.000Z,8.98
2022-10-09T00:32:35.000Z,9.01
2022-10-09T00:37:34.000Z,9.01
2022-10-09T00:42:35.000Z,8.98
2022-10-09T00:47:34.000Z,9
2022-10-09T00:52:35.000Z,8.99
2022-10-09T00:57:34.000Z,8.97
2022-10-09T01:02:35.000Z,9
2022-10-09T01:07:34.000Z,8.91
2022-10-09T01:12:34.000Z,8.85
2022-10-09T01:17:34.000Z,8.87
2022-10-09T01:22:34.000Z,8.84
2022-10-09T01:27:34.000Z,8.83
2022-10-09T01:32:35.000Z,8.77
2022-10-09T01:37:35.000Z,8.74
2022-10-09T01:42:35.000Z,8.77
2022-10-09T01:47:34.000Z,8.76
2022-10-09T01:57:35.000Z,8.8
2022-10-09T02:02:35.000Z,8.8
2022-10-09T02:07:35.000Z,8.71
2022-10-09T02:12:34.000Z,8.62
2022-10-09T02:17:35.000Z,8.64
2022-10-09T02:22:35.000Z,8.68
2022-10-09T02:27:34.000Z,8.62
2022-10-09T02:32:34.000Z,8.63
2022-10-09T02:37:34.000Z,8.6
2022-10-09T02:42:35.000Z,8.58
2022-10-09T02:47:34.000Z,8.63
2022-10-09T02:52:35.000Z,8.64
2022-10-09T02:57:34.000Z,8.65
2022-10-09T03:02:35.000Z,8.63
2022-10-09T03:07:35.000Z,8.67
2022-10-09T03:12:35.000Z,8.71
2022-10-09T03:17:34.000Z,8.71
2022-10-09T03:22:34.000Z,8.69
2022-10-09T03:27:35.000Z,8.67
2022-10-09T03:32:35.000Z,8.74
2022-10-09T03:37:34.000Z,8.78
2022-10-09T03:47:35.000Z,8.86
2022-10-09T03:52:35.000Z,8.92
2022-10-09T03:57:35.000Z,8.98
2022-10-09T04:02:34.000Z,9.02
2022-10-09T04:12:35.000Z,9.21
2022-10-09T04:17:34.000Z,9.33
2022-10-09T04:27:35.000Z,9.46
2022-10-09T04:32:35.000Z,9.52
2022-10-09T04:37:34.000Z,9.58
2022-10-09T04:42:35.000Z,9.69
2022-10-09T04:47:35.000Z,9.79
2022-10-09T04:52:34.000Z,9.85
2022-10-09T04:57:35.000Z,10.02
2022-10-09T05:02:35.000Z,10.15
2022-10-09T05:07:34.000Z,10.28
2022-10-09T05:12:35.000Z,10.28
2022-10-09T05:17:35.000Z,10.57
2022-10-09T05:27:35.000Z,11.78
2022-10-09T05:32:35.000Z,12.84
2022-10-09T05:37:35.000Z,13.32
2022-10-09T05:42:34.000Z,13.56
2022-10-09T05:47:35.000Z,15.21
2022-10-09T05:52:35.000Z,17.36
2022-10-09T05:57:35.000Z,19.2
2022-10-09T06:02:35.000Z,20.99
2022-10-09T06:07:35.000Z,23.13
2022-10-09T06:12:35.000Z,24.41
2022-10-09T06:17:35.000Z,25.79
2022-10-09T06:22:34.000Z,26.39
2022-10-09T06:27:34.000Z,25.55
2022-10-09T06:32:35.000Z,25.55
2022-10-09T06:42:34.000Z,23.85
2022-10-09T06:47:34.000Z,23.04
2022-10-09T06:52:34.000Z,22.07
2022-10-09T06:57:34.000Z,22.07
2022-10-09T07:02:35.000Z,22.44
2022-10-09T07:07:34.000Z,24.91
2022-10-09T07:12:35.000Z,26.49
2022-10-09T07:17:34.000Z,26.89
2022-10-09T07:22:37.000Z,26.82
2022-10-09T07:27:34.000Z,26.52
2022-10-09T07:32:35.000Z,27.46
2022-10-09T07:37:35.000Z,27.71
2022-10-09T07:42:35.000Z,27.7
2022-10-09T07:47:35.000Z,28.38
2022-10-09T07:52:34.000Z,29.27
2022-10-09T07:57:34.000Z,29.28
2022-10-09T08:02:35.000Z,30.24
2022-10-09T08:07:35.000Z,31.87
2022-10-09T08:12:34.000Z,31.87
2022-10-09T08:17:35.000Z,31.48
2022-10-09T08:22:35.000Z,31.75
2022-10-09T08:27:35.000Z,31.14
2022-10-09T08:32:34.000Z,30.25
2022-10-09T08:42:35.000Z,27.73
2022-10-09T08:47:34.000Z,27.51
2022-10-09T08:52:35.000Z,26.22
2022-10-09T08:57:35.000Z,24.39
2022-10-09T09:02:35.000Z,22.63
2022-10-09T09:07:34.000Z,21.17
2022-10-09T09:12:35.000Z,20.06
2022-10-09T09:17:34.000Z,19.37
2022-10-09T09:22:35.000Z,19.37
2022-10-09T09:27:35.000Z,18.8
2022-10-09T09:32:35.000Z,18.54
2022-10-09T09:37:35.000Z,18.32
2022-10-09T09:42:34.000Z,18.33
2022-10-09T09:47:34.000Z,18.22
2022-10-09T09:52:35.000Z,18.25
2022-10-09T09:57:34.000Z,18.11
2022-10-09T10:02:36.000Z,17.92
2022-10-09T10:07:35.000Z,17.92
2022-10-09T10:12:35.000Z,17.98
2022-10-09T10:17:35.000Z,18.03
2022-10-09T10:22:35.000Z,17.89
2022-10-09T10:27:34.000Z,17.84
2022-10-09T10:32:35.000Z,17.87
2022-10-09T10:37:34.000Z,17.87
2022-10-09T10:42:35.000Z,17.94
2022-10-09T10:47:34.000Z,17.97
2022-10-09T10:52:35.000Z,17.9
2022-10-09T10:57:34.000Z,18.01
2022-10-09T11:02:35.000Z,18.09
2022-10-09T11:07:35.000Z,17.97
2022-10-09T11:12:58.000Z,17.97
2022-10-09T11:17:35.000Z,18.12
2022-10-09T11:22:35.000Z,18.17
2022-10-09T11:27:34.000Z,18.14
2022-10-09T11:32:35.000Z,18.06
2022-10-09T11:37:35.000Z,18.11
2022-10-09T11:42:34.000Z,18.06
2022-10-09T11:47:35.000Z,18.06
2022-10-09T11:52:35.000Z,18.17
2022-10-09T11:57:35.000Z,18.24
2022-10-09T12:02:35.000Z,18.24
2022-10-09T12:07:34.000Z,18.31
2022-10-09T12:12:35.000Z,18.23
2022-10-09T12:17:34.000Z,18.14
2022-10-09T12:22:34.000Z,17.99
2022-10-09T12:27:35.000Z,17.93
2022-10-09T12:32:34.000Z,17.83
2022-10-09T12:37:35.000Z,17.64
2022-10-09T12:42:35.000Z,17.7
2022-10-09T12:47:35.000Z,17.63
2022-10-09T12:52:35.000Z,17.55
2022-10-09T12:57:38.000Z,17.45
2022-10-09T13:02:34.000Z,17.45
2022-10-09T13:07:34.000Z,17.4
2022-10-09T13:12:35.000Z,17.39
2022-10-09T13:17:35.000Z,17.39
2022-10-09T13:22:34.000Z,17.34
2022-10-09T13:27:34.000Z,17.3
2022-10-09T13:32:34.000Z,17.19
2022-10-09T13:37:35.000Z,17.09
2022-10-09T13:42:35.000Z,17.04
2022-10-09T13:47:35.000Z,17
2022-10-09T13:52:35.000Z,17.07
2022-10-09T13:57:34.000Z,17
2022-10-09T14:02:34.000Z,16.96
2022-10-09T14:12:35.000Z,16.74
2022-10-09T14:17:34.000Z,16.45
2022-10-09T14:22:34.000Z,16.22
2022-10-09T14:32:35.000Z,15.83
2022-10-09T14:37:51.000Z,15.51
2022-10-09T14:42:35.000Z,15.3
2022-10-09T14:47:35.000Z,15.1
2022-10-09T14:52:35.000Z,14.98
2022-10-09T14:57:34.000Z,14.96
2022-10-09T15:02:34.000Z,14.84
2022-10-09T15:07:35.000Z,14.84
2022-10-09T15:12:35.000Z,14.87
2022-10-09T15:17:35.000Z,14.93
2022-10-09T15:22:35.000Z,14.85
2022-10-09T15:27:35.000Z,14.77
2022-10-09T15:32:34.000Z,14.72
2022-10-09T15:37:35.000Z,14.45
2022-10-09T15:42:34.000Z,14.41
2022-10-09T15:47:59.000Z,14.32
2022-10-09T15:52:34.000Z,14.24
2022-10-09T15:57:35.000Z,14.08
2022-10-09T16:02:35.000Z,14.01
2022-10-09T16:07:34.000Z,13.9
2022-10-09T16:12:35.000Z,13.83
2022-10-09T16:17:35.000Z,13.71
2022-10-09T16:22:35.000Z,13.71
2022-10-09T16:27:35.000Z,13.47
2022-10-09T16:32:35.000Z,13.49
2022-10-09T16:37:34.000Z,13.46
2022-10-09T16:42:35.000Z,13.36
2022-10-09T16:47:35.000Z,13.35
2022-10-09T16:52:35.000Z,13.1
2022-10-09T16:57:35.000Z,13.07
2022-10-09T17:02:34.000Z,13.16
2022-10-09T17:07:34.000Z,13.05
2022-10-09T17:12:35.000Z,12.81
2022-10-09T17:17:34.000Z,12.51
2022-10-09T17:22:35.000Z,12.31
2022-10-09T17:27:35.000Z,12.38
2022-10-09T17:37:34.000Z,12.64
2022-10-09T17:42:34.000Z,12.58
2022-10-09T17:47:35.000Z,12.47
2022-10-09T17:52:35.000Z,12.53
2022-10-09T17:57:34.000Z,12.36
2022-10-09T18:02:34.000Z,12.37
2022-10-09T18:07:35.000Z,12.37
2022-10-09T18:12:34.000Z,12.33
2022-10-09T18:17:35.000Z,12.33
2022-10-09T18:22:35.000Z,12.4
2022-10-09T18:27:35.000Z,12.33
2022-10-09T18:32:35.000Z,12.31
2022-10-09T18:37:34.000Z,12.22
2022-10-09T18:42:35.000Z,12.14
2022-10-09T18:47:35.000Z,12.21
2022-10-09T18:52:35.000Z,12.37
2022-10-09T18:57:35.000Z,12.48
2022-10-09T19:02:34.000Z,12.61
2022-10-09T19:07:35.000Z,12.66
2022-10-09T19:12:35.000Z,12.57
2022-10-09T19:17:35.000Z,12.49
2022-10-09T19:22:34.000Z,12.26
2022-10-09T19:27:36.000Z,12.16
2022-10-09T19:32:34.000Z,12.16
2022-10-09T19:37:39.000Z,12.29
2022-10-09T19:47:35.000Z,12.34
2022-10-09T19:52:35.000Z,12.34
2022-10-09T19:57:34.000Z,12.34
2022-10-09T20:02:35.000Z,12.37
2022-10-09T20:07:35.000Z,12.35
2022-10-09T20:17:34.000Z,12.35
2022-10-09T20:22:35.000Z,12.34
2022-10-09T20:27:34.000Z,12.41
2022-10-09T20:32:34.000Z,12.41
2022-10-09T20:37:34.000Z,12.44
2022-10-09T20:47:34.000Z,12.31
2022-10-09T20:52:34.000Z,12.23
2022-10-09T20:57:34.000Z,12.39
2022-10-09T21:02:35.000Z,12.43
2022-10-09T21:07:34.000Z,12.43
2022-10-09T21:12:35.000Z,12.39
2022-10-09T21:17:34.000Z,12.42
2022-10-09T21:22:35.000Z,12.49
2022-10-09T21:27:34.000Z,12.49
2022-10-09T21:32:35.000Z,12.52
2022-10-09T21:37:34.000Z,12.57
2022-10-09T21:47:34.000Z,12.44
2022-10-09T21:52:35.000Z,12.42
2022-10-09T21:57:35.000Z,12.41
2022-10-09T22:02:34.000Z,12.31
2022-10-09T22:07:34.000Z,12.25
2022-10-09T22:12:34.000Z,12.22
2022-10-09T22:17:35.000Z,12.19
2022-10-09T22:22:35.000Z,12.19
2022-10-09T22:27:34.000Z,12.09
2022-10-09T22:32:35.000Z,11.96
2022-10-09T22:37:34.000Z,11.87
2022-10-09T22:42:35.000Z,11.78
2022-10-09T22:47:35.000Z,11.7
2022-10-09T22:52:35.000Z,11.61
2022-10-09T22:57:35.000Z,11.56
2022-10-09T23:02:35.000Z,11.5
2022-10-09T23:07:35.000Z,11.4
2022-10-09T23:12:34.000Z,11.34
2022-10-09T23:17:34.000Z,11.31
2022-10-09T23:22:35.000Z,11.27
2022-10-09T23:27:35.000Z,11.19
2022-10-09T23:32:35.000Z,11.21
2022-10-09T23:37:35.000Z,11.21
2022-10-09T23:42:35.000Z,11.23
2022-10-09T23:47:35.000Z,11.23
2022-10-09T23:52:34.000Z,11.2
2022-10-09T23:57:35.000Z,11.15
